sensor_id;sensor_type;location;lat;lon;timestamp;P1;durP1;ratioP1;P2;durP2;ratioP2
17985;SDS011;9118;48.122;11.546;2023-04-29T00:01:47;3.43;;;1.47;;
17985;SDS011;9118;48.122;11.546;2023-04-29T00:04:15;1.87;;;1.50;;
17985;SDS011;9118;48.122;11.546;2023-04-29T00:06:42;4.03;;;1.70;;
17985;SDS011;9118;48.122;11.546;2023-04-29T00:09:10;2.43;;;2.23;;
17985;SDS011;9118;48.122;11.546;2023-04-29T00:11:37;1.90;;;1.77;;
17985;SDS011;9118;48.122;11.546;2023-04-29T00:14:05;1.40;;;1.30;;
17985;SDS011;9118;48.122;11.546;2023-04-29T00:16:32;1.97;;;1.63;;
17985;SDS011;9118;48.122;11.546;2023-04-29T00:18:59;1.30;;;1.20;;
17985;SDS011;9118;48.122;11.546;2023-04-29T00:21:26;1.97;;;1.40;;
17985;SDS011;9118;48.122;11.546;2023-04-29T00:23:54;4.57;;;3.43;;
17985;SDS011;9118;48.122;11.546;2023-04-29T00:26:21;3.23;;;2.57;;
17985;SDS011;9118;48.122;11.546;2023-04-29T00:28:48;3.83;;;2.87;;
17985;SDS011;9118;48.122;11.546;2023-04-29T00:31:16;2.90;;;1.47;;
17985;SDS011;9118;48.122;11.546;2023-04-29T00:33:43;1.70;;;1.60;;
17985;SDS011;9118;48.122;11.546;2023-04-29T00:36:11;2.13;;;1.23;;
17985;SDS011;9118;48.122;11.546;2023-04-29T00:38:38;1.23;;;1.17;;
17985;SDS011;9118;48.122;11.546;2023-04-29T00:41:05;0.90;;;0.90;;
17985;SDS011;9118;48.122;11.546;2023-04-29T00:43:32;1.20;;;1.10;;
17985;SDS011;9118;48.122;11.546;2023-04-29T00:45:59;1.37;;;1.30;;
17985;SDS011;9118;48.122;11.546;2023-04-29T00:48:28;2.97;;;1.40;;
17985;SDS011;9118;48.122;11.546;2023-04-29T00:50:55;1.77;;;1.40;;
17985;SDS011;9118;48.122;11.546;2023-04-29T00:53:22;1.33;;;1.23;;
17985;SDS011;9118;48.122;11.546;2023-04-29T00:55:49;2.20;;;2.07;;
17985;SDS011;9118;48.122;11.546;2023-04-29T00:58:17;2.63;;;1.80;;
17985;SDS011;9118;48.122;11.546;2023-04-29T01:00:44;1.40;;;1.30;;
17985;SDS011;9118;48.122;11.546;2023-04-29T01:03:12;1.40;;;1.30;;
17985;SDS011;9118;48.122;11.546;2023-04-29T01:05:41;1.57;;;1.43;;
17985;SDS011;9118;48.122;11.546;2023-04-29T01:08:18;1.37;;;1.30;;
17985;SDS011;9118;48.122;11.546;2023-04-29T01:10:59;2.23;;;1.70;;
17985;SDS011;9118;48.122;11.546;2023-04-29T01:13:34;3.33;;;1.40;;
17985;SDS011;9118;48.122;11.546;2023-04-29T01:16:10;1.40;;;1.30;;
17985;SDS011;9118;48.122;11.546;2023-04-29T01:18:45;1.30;;;1.20;;
17985;SDS011;9118;48.122;11.546;2023-04-29T01:21:20;1.40;;;1.30;;
17985;SDS011;9118;48.122;11.546;2023-04-29T01:23:49;1.40;;;1.30;;
17985;SDS011;9118;48.122;11.546;2023-04-29T01:26:20;1.60;;;1.40;;
17985;SDS011;9118;48.122;11.546;2023-04-29T01:28:49;1.40;;;1.30;;
17985;SDS011;9118;48.122;11.546;2023-04-29T01:31:23;2.20;;;1.50;;
17985;SDS011;9118;48.122;11.546;2023-04-29T01:33:58;1.50;;;1.40;;
17985;SDS011;9118;48.122;11.546;2023-04-29T01:36:32;1.90;;;1.60;;
17985;SDS011;9118;48.122;11.546;2023-04-29T01:39:13;1.60;;;1.50;;
17985;SDS011;9118;48.122;11.546;2023-04-29T01:41:42;3.53;;;1.50;;
17985;SDS011;9118;48.122;11.546;2023-04-29T01:44:13;1.70;;;1.60;;
17985;SDS011;9118;48.122;11.546;2023-04-29T01:46:42;2.30;;;1.97;;
17985;SDS011;9118;48.122;11.546;2023-04-29T01:49:12;3.30;;;1.67;;
17985;SDS011;9118;48.122;11.546;2023-04-29T01:51:39;2.20;;;1.50;;
17985;SDS011;9118;48.122;11.546;2023-04-29T01:54:06;1.60;;;1.50;;
17985;SDS011;9118;48.122;11.546;2023-04-29T01:56:34;1.57;;;1.47;;
17985;SDS011;9118;48.122;11.546;2023-04-29T01:59:01;1.90;;;1.77;;
17985;SDS011;9118;48.122;11.546;2023-04-29T02:01:28;1.77;;;1.40;;
17985;SDS011;9118;48.122;11.546;2023-04-29T02:03:57;3.73;;;1.70;;
17985;SDS011;9118;48.122;11.546;2023-04-29T02:06:24;1.97;;;1.40;;
17985;SDS011;9118;48.122;11.546;2023-04-29T02:08:52;1.47;;;1.37;;
17985;SDS011;9118;48.122;11.546;2023-04-29T02:11:19;1.70;;;1.60;;
17985;SDS011;9118;48.122;11.546;2023-04-29T02:13:47;1.70;;;1.60;;
17985;SDS011;9118;48.122;11.546;2023-04-29T02:16:14;3.53;;;1.90;;
17985;SDS011;9118;48.122;11.546;2023-04-29T02:18:42;3.77;;;1.50;;
17985;SDS011;9118;48.122;11.546;2023-04-29T02:21:09;1.93;;;1.63;;
17985;SDS011;9118;48.122;11.546;2023-04-29T02:23:36;2.17;;;1.97;;
17985;SDS011;9118;48.122;11.546;2023-04-29T02:26:03;2.30;;;2.10;;
17985;SDS011;9118;48.122;11.546;2023-04-29T02:28:31;2.43;;;1.90;;
17985;SDS011;9118;48.122;11.546;2023-04-29T02:31:00;1.93;;;1.83;;
17985;SDS011;9118;48.122;11.546;2023-04-29T02:33:27;1.77;;;1.67;;
17985;SDS011;9118;48.122;11.546;2023-04-29T02:35:54;1.70;;;1.60;;
17985;SDS011;9118;48.122;11.546;2023-04-29T02:38:21;2.87;;;2.20;;
17985;SDS011;9118;48.122;11.546;2023-04-29T02:40:48;1.73;;;1.63;;
17985;SDS011;9118;48.122;11.546;2023-04-29T02:43:15;1.93;;;1.83;;
17985;SDS011;9118;48.122;11.546;2023-04-29T02:45:45;2.93;;;1.70;;
17985;SDS011;9118;48.122;11.546;2023-04-29T02:48:13;1.90;;;1.70;;
17985;SDS011;9118;48.122;11.546;2023-04-29T02:50:41;1.70;;;1.60;;
17985;SDS011;9118;48.122;11.546;2023-04-29T02:53:08;2.33;;;2.13;;
17985;SDS011;9118;48.122;11.546;2023-04-29T02:55:35;1.97;;;1.77;;
17985;SDS011;9118;48.122;11.546;2023-04-29T02:58:02;1.73;;;1.63;;
17985;SDS011;9118;48.122;11.546;2023-04-29T03:00:29;1.80;;;1.70;;
17985;SDS011;9118;48.122;11.546;2023-04-29T03:02:56;1.70;;;1.60;;
17985;SDS011;9118;48.122;11.546;2023-04-29T03:05:24;2.00;;;1.80;;
17985;SDS011;9118;48.122;11.546;2023-04-29T03:07:51;1.90;;;1.80;;
17985;SDS011;9118;48.122;11.546;2023-04-29T03:10:18;3.20;;;2.20;;
17985;SDS011;9118;48.122;11.546;2023-04-29T03:12:46;1.90;;;1.80;;
17985;SDS011;9118;48.122;11.546;2023-04-29T03:15:13;1.87;;;1.77;;
17985;SDS011;9118;48.122;11.546;2023-04-29T03:17:41;2.20;;;2.10;;
17985;SDS011;9118;48.122;11.546;2023-04-29T03:20:10;2.00;;;1.90;;
17985;SDS011;9118;48.122;11.546;2023-04-29T03:22:39;2.20;;;2.00;;
17985;SDS011;9118;48.122;11.546;2023-04-29T03:25:06;1.90;;;1.67;;
17985;SDS011;9118;48.122;11.546;2023-04-29T03:27:34;2.53;;;2.33;;
17985;SDS011;9118;48.122;11.546;2023-04-29T03:30:04;2.20;;;2.00;;
17985;SDS011;9118;48.122;11.546;2023-04-29T03:32:33;3.73;;;2.17;;
17985;SDS011;9118;48.122;11.546;2023-04-29T03:35:00;2.10;;;2.00;;
17985;SDS011;9118;48.122;11.546;2023-04-29T03:37:27;2.17;;;1.97;;
17985;SDS011;9118;48.122;11.546;2023-04-29T03:39:55;1.97;;;1.87;;
17985;SDS011;9118;48.122;11.546;2023-04-29T03:42:23;2.27;;;2.07;;
17985;SDS011;9118;48.122;11.546;2023-04-29T03:44:51;2.80;;;2.07;;
17985;SDS011;9118;48.122;11.546;2023-04-29T03:47:19;2.20;;;2.00;;
17985;SDS011;9118;48.122;11.546;2023-04-29T03:49:46;2.10;;;1.90;;
17985;SDS011;9118;48.122;11.546;2023-04-29T03:52:13;2.00;;;1.90;;
17985;SDS011;9118;48.122;11.546;2023-04-29T03:54:40;2.40;;;2.20;;
17985;SDS011;9118;48.122;11.546;2023-04-29T03:57:09;2.87;;;2.30;;
17985;SDS011;9118;48.122;11.546;2023-04-29T03:59:36;2.53;;;2.30;;
17985;SDS011;9118;48.122;11.546;2023-04-29T04:02:04;3.20;;;2.90;;
17985;SDS011;9118;48.122;11.546;2023-04-29T04:04:31;3.50;;;2.20;;
17985;SDS011;9118;48.122;11.546;2023-04-29T04:06:58;2.50;;;2.30;;
17985;SDS011;9118;48.122;11.546;2023-04-29T04:09:25;2.33;;;2.13;;
17985;SDS011;9118;48.122;11.546;2023-04-29T04:11:52;2.40;;;2.20;;
17985;SDS011;9118;48.122;11.546;2023-04-29T04:14:20;3.20;;;2.50;;
17985;SDS011;9118;48.122;11.546;2023-04-29T04:16:47;2.60;;;2.40;;
17985;SDS011;9118;48.122;11.546;2023-04-29T04:19:15;2.47;;;2.27;;
17985;SDS011;9118;48.122;11.546;2023-04-29T04:21:42;6.80;;;2.97;;
17985;SDS011;9118;48.122;11.546;2023-04-29T04:24:10;4.07;;;2.70;;
17985;SDS011;9118;48.122;11.546;2023-04-29T04:26:37;2.87;;;2.63;;
17985;SDS011;9118;48.122;11.546;2023-04-29T04:29:05;2.60;;;2.40;;
17985;SDS011;9118;48.122;11.546;2023-04-29T04:31:33;2.70;;;2.50;;
17985;SDS011;9118;48.122;11.546;2023-04-29T04:34:01;2.77;;;2.57;;
17985;SDS011;9118;48.122;11.546;2023-04-29T04:36:28;3.50;;;2.60;;
17985;SDS011;9118;48.122;11.546;2023-04-29T04:38:55;2.83;;;2.63;;
17985;SDS011;9118;48.122;11.546;2023-04-29T04:41:22;2.87;;;2.60;;
17985;SDS011;9118;48.122;11.546;2023-04-29T04:43:49;3.10;;;2.87;;
17985;SDS011;9118;48.122;11.546;2023-04-29T04:46:16;2.87;;;2.67;;
17985;SDS011;9118;48.122;11.546;2023-04-29T04:48:44;3.77;;;2.70;;
17985;SDS011;9118;48.122;11.546;2023-04-29T04:51:11;2.43;;;2.23;;
17985;SDS011;9118;48.122;11.546;2023-04-29T04:53:39;2.90;;;2.70;;
17985;SDS011;9118;48.122;11.546;2023-04-29T04:56:07;2.70;;;2.50;;
17985;SDS011;9118;48.122;11.546;2023-04-29T04:58:34;4.10;;;2.60;;
17985;SDS011;9118;48.122;11.546;2023-04-29T05:01:01;4.27;;;2.57;;
17985;SDS011;9118;48.122;11.546;2023-04-29T05:03:28;2.60;;;2.40;;
17985;SDS011;9118;48.122;11.546;2023-04-29T05:05:56;3.10;;;2.80;;
17985;SDS011;9118;48.122;11.546;2023-04-29T05:08:26;3.00;;;2.70;;
17985;SDS011;9118;48.122;11.546;2023-04-29T05:10:53;2.80;;;2.60;;
17985;SDS011;9118;48.122;11.546;2023-04-29T05:13:20;3.17;;;2.90;;
17985;SDS011;9118;48.122;11.546;2023-04-29T05:15:51;3.80;;;3.03;;
17985;SDS011;9118;48.122;11.546;2023-04-29T05:18:18;3.07;;;2.70;;
17985;SDS011;9118;48.122;11.546;2023-04-29T05:20:45;10.67;;;3.00;;
17985;SDS011;9118;48.122;11.546;2023-04-29T05:23:13;3.20;;;3.00;;
17985;SDS011;9118;48.122;11.546;2023-04-29T05:25:40;3.53;;;2.83;;
17985;SDS011;9118;48.122;11.546;2023-04-29T05:28:07;3.70;;;3.37;;
17985;SDS011;9118;48.122;11.546;2023-04-29T05:30:34;3.73;;;3.07;;
17985;SDS011;9118;48.122;11.546;2023-04-29T05:33:02;3.10;;;2.90;;
17985;SDS011;9118;48.122;11.546;2023-04-29T05:35:29;3.10;;;2.43;;
17985;SDS011;9118;48.122;11.546;2023-04-29T05:37:56;2.97;;;2.67;;
17985;SDS011;9118;48.122;11.546;2023-04-29T05:40:25;2.97;;;2.73;;
17985;SDS011;9118;48.122;11.546;2023-04-29T05:42:52;5.07;;;2.53;;
17985;SDS011;9118;48.122;11.546;2023-04-29T05:45:19;2.70;;;2.50;;
17985;SDS011;9118;48.122;11.546;2023-04-29T05:47:47;3.50;;;2.77;;
17985;SDS011;9118;48.122;11.546;2023-04-29T05:50:14;4.63;;;2.70;;
17985;SDS011;9118;48.122;11.546;2023-04-29T05:52:41;2.60;;;2.40;;
17985;SDS011;9118;48.122;11.546;2023-04-29T05:55:09;3.03;;;2.80;;
17985;SDS011;9118;48.122;11.546;2023-04-29T05:57:38;3.30;;;3.00;;
17985;SDS011;9118;48.122;11.546;2023-04-29T06:00:05;3.80;;;3.40;;
17985;SDS011;9118;48.122;11.546;2023-04-29T06:02:33;3.00;;;2.70;;
17985;SDS011;9118;48.122;11.546;2023-04-29T06:05:07;2.87;;;2.67;;
17985;SDS011;9118;48.122;11.546;2023-04-29T06:07:34;3.43;;;2.40;;
17985;SDS011;9118;48.122;11.546;2023-04-29T06:10:02;2.80;;;2.60;;
17985;SDS011;9118;48.122;11.546;2023-04-29T06:12:29;2.97;;;2.67;;
17985;SDS011;9118;48.122;11.546;2023-04-29T06:14:58;2.90;;;2.70;;
17985;SDS011;9118;48.122;11.546;2023-04-29T06:17:25;4.10;;;2.90;;
17985;SDS011;9118;48.122;11.546;2023-04-29T06:19:53;3.53;;;3.23;;
17985;SDS011;9118;48.122;11.546;2023-04-29T06:22:20;4.97;;;3.33;;
17985;SDS011;9118;48.122;11.546;2023-04-29T06:24:47;3.53;;;3.23;;
17985;SDS011;9118;48.122;11.546;2023-04-29T06:27:15;3.87;;;3.57;;
17985;SDS011;9118;48.122;11.546;2023-04-29T06:29:42;4.37;;;3.73;;
17985;SDS011;9118;48.122;11.546;2023-04-29T06:32:10;4.07;;;3.73;;
17985;SDS011;9118;48.122;11.546;2023-04-29T06:34:38;4.63;;;4.23;;
17985;SDS011;9118;48.122;11.546;2023-04-29T06:37:05;6.03;;;4.20;;
17985;SDS011;9118;48.122;11.546;2023-04-29T06:39:32;4.90;;;4.40;;
17985;SDS011;9118;48.122;11.546;2023-04-29T06:41:59;5.40;;;4.90;;
17985;SDS011;9118;48.122;11.546;2023-04-29T06:44:27;6.53;;;4.30;;
17985;SDS011;9118;48.122;11.546;2023-04-29T06:46:55;5.00;;;4.50;;
17985;SDS011;9118;48.122;11.546;2023-04-29T06:49:23;5.40;;;4.83;;
17985;SDS011;9118;48.122;11.546;2023-04-29T06:51:50;5.80;;;5.30;;
17985;SDS011;9118;48.122;11.546;2023-04-29T06:54:17;5.70;;;5.20;;
17985;SDS011;9118;48.122;11.546;2023-04-29T06:56:45;6.77;;;5.13;;
17985;SDS011;9118;48.122;11.546;2023-04-29T06:59:12;6.83;;;5.37;;
17985;SDS011;9118;48.122;11.546;2023-04-29T07:01:39;5.80;;;5.30;;
17985;SDS011;9118;48.122;11.546;2023-04-29T07:04:06;7.47;;;5.80;;
17985;SDS011;9118;48.122;11.546;2023-04-29T07:06:35;5.20;;;4.70;;
17985;SDS011;9118;48.122;11.546;2023-04-29T07:09:02;5.60;;;4.73;;
17985;SDS011;9118;48.122;11.546;2023-04-29T07:11:29;5.70;;;5.10;;
17985;SDS011;9118;48.122;11.546;2023-04-29T07:13:56;6.30;;;5.30;;
17985;SDS011;9118;48.122;11.546;2023-04-29T07:16:23;5.93;;;5.33;;
17985;SDS011;9118;48.122;11.546;2023-04-29T07:18:52;6.20;;;5.30;;
17985;SDS011;9118;48.122;11.546;2023-04-29T07:21:19;5.60;;;5.10;;
17985;SDS011;9118;48.122;11.546;2023-04-29T07:23:48;6.13;;;5.50;;
17985;SDS011;9118;48.122;11.546;2023-04-29T07:26:16;5.93;;;5.43;;
17985;SDS011;9118;48.122;11.546;2023-04-29T07:28:43;5.97;;;5.43;;
17985;SDS011;9118;48.122;11.546;2023-04-29T07:31:11;6.43;;;5.00;;
17985;SDS011;9118;48.122;11.546;2023-04-29T07:33:38;5.90;;;5.30;;
17985;SDS011;9118;48.122;11.546;2023-04-29T07:36:05;6.10;;;5.17;;
17985;SDS011;9118;48.122;11.546;2023-04-29T07:38:33;5.90;;;5.30;;
17985;SDS011;9118;48.122;11.546;2023-04-29T07:41:02;5.90;;;5.40;;
17985;SDS011;9118;48.122;11.546;2023-04-29T07:43:29;5.60;;;5.10;;
17985;SDS011;9118;48.122;11.546;2023-04-29T07:45:56;5.53;;;5.03;;
17985;SDS011;9118;48.122;11.546;2023-04-29T07:48:27;5.30;;;4.60;;
17985;SDS011;9118;48.122;11.546;2023-04-29T07:50:54;6.43;;;5.10;;
17985;SDS011;9118;48.122;11.546;2023-04-29T07:53:21;5.93;;;5.17;;
17985;SDS011;9118;48.122;11.546;2023-04-29T07:55:48;5.87;;;5.30;;
17985;SDS011;9118;48.122;11.546;2023-04-29T07:58:16;5.53;;;5.00;;
17985;SDS011;9118;48.122;11.546;2023-04-29T08:00:43;5.23;;;4.73;;
17985;SDS011;9118;48.122;11.546;2023-04-29T08:03:11;6.30;;;5.17;;
17985;SDS011;9118;48.122;11.546;2023-04-29T08:05:38;5.10;;;4.60;;
17985;SDS011;9118;48.122;11.546;2023-04-29T08:08:06;5.97;;;4.37;;
17985;SDS011;9118;48.122;11.546;2023-04-29T08:10:36;6.23;;;4.43;;
17985;SDS011;9118;48.122;11.546;2023-04-29T08:13:05;5.40;;;4.90;;
17985;SDS011;9118;48.122;11.546;2023-04-29T08:15:33;4.77;;;4.37;;
17985;SDS011;9118;48.122;11.546;2023-04-29T08:18:00;4.30;;;3.90;;
17985;SDS011;9118;48.122;11.546;2023-04-29T08:20:27;4.33;;;3.93;;
17985;SDS011;9118;48.122;11.546;2023-04-29T08:22:54;4.33;;;3.93;;
17985;SDS011;9118;48.122;11.546;2023-04-29T08:25:23;4.43;;;3.70;;
17985;SDS011;9118;48.122;11.546;2023-04-29T08:27:51;4.03;;;3.73;;
17985;SDS011;9118;48.122;11.546;2023-04-29T08:30:18;5.00;;;3.87;;
17985;SDS011;9118;48.122;11.546;2023-04-29T08:32:46;5.03;;;3.90;;
17985;SDS011;9118;48.122;11.546;2023-04-29T08:35:13;4.20;;;3.80;;
17985;SDS011;9118;48.122;11.546;2023-04-29T08:37:40;4.67;;;3.90;;
17985;SDS011;9118;48.122;11.546;2023-04-29T08:40:08;4.30;;;3.90;;
17985;SDS011;9118;48.122;11.546;2023-04-29T08:42:35;4.50;;;3.60;;
17985;SDS011;9118;48.122;11.546;2023-04-29T08:45:03;5.67;;;3.77;;
17985;SDS011;9118;48.122;11.546;2023-04-29T08:47:31;4.10;;;3.70;;
17985;SDS011;9118;48.122;11.546;2023-04-29T08:50:01;4.23;;;3.77;;
17985;SDS011;9118;48.122;11.546;2023-04-29T08:52:29;3.67;;;3.10;;
17985;SDS011;9118;48.122;11.546;2023-04-29T08:54:57;3.13;;;2.90;;
17985;SDS011;9118;48.122;11.546;2023-04-29T08:57:26;6.50;;;3.57;;
17985;SDS011;9118;48.122;11.546;2023-04-29T08:59:55;2.93;;;2.67;;
17985;SDS011;9118;48.122;11.546;2023-04-29T09:02:24;3.27;;;3.03;;
17985;SDS011;9118;48.122;11.546;2023-04-29T09:04:52;3.43;;;2.90;;
17985;SDS011;9118;48.122;11.546;2023-04-29T09:07:28;3.23;;;2.57;;
17985;SDS011;9118;48.122;11.546;2023-04-29T09:09:57;4.20;;;2.97;;
17985;SDS011;9118;48.122;11.546;2023-04-29T09:12:24;4.70;;;2.80;;
17985;SDS011;9118;48.122;11.546;2023-04-29T09:14:51;3.10;;;2.90;;
17985;SDS011;9118;48.122;11.546;2023-04-29T09:17:18;3.60;;;2.80;;
17985;SDS011;9118;48.122;11.546;2023-04-29T09:19:45;3.43;;;3.13;;
17985;SDS011;9118;48.122;11.546;2023-04-29T09:22:12;3.23;;;2.70;;
17985;SDS011;9118;48.122;11.546;2023-04-29T09:24:44;3.00;;;2.80;;
17985;SDS011;9118;48.122;11.546;2023-04-29T09:27:15;3.00;;;2.70;;
17985;SDS011;9118;48.122;11.546;2023-04-29T09:29:58;2.70;;;2.50;;
17985;SDS011;9118;48.122;11.546;2023-04-29T09:32:26;2.70;;;2.50;;
17985;SDS011;9118;48.122;11.546;2023-04-29T09:34:53;2.70;;;2.43;;
17985;SDS011;9118;48.122;11.546;2023-04-29T09:37:24;2.80;;;2.60;;
17985;SDS011;9118;48.122;11.546;2023-04-29T09:39:53;2.90;;;2.70;;
17985;SDS011;9118;48.122;11.546;2023-04-29T09:42:21;3.30;;;2.47;;
17985;SDS011;9118;48.122;11.546;2023-04-29T09:44:48;3.00;;;2.70;;
17985;SDS011;9118;48.122;11.546;2023-04-29T09:47:16;2.70;;;2.50;;
17985;SDS011;9118;48.122;11.546;2023-04-29T09:49:43;2.60;;;2.40;;
17985;SDS011;9118;48.122;11.546;2023-04-29T09:52:11;6.37;;;2.57;;
17985;SDS011;9118;48.122;11.546;2023-04-29T09:54:41;4.23;;;2.83;;
17985;SDS011;9118;48.122;11.546;2023-04-29T09:57:10;2.87;;;2.60;;
17985;SDS011;9118;48.122;11.546;2023-04-29T09:59:40;2.77;;;2.57;;
17985;SDS011;9118;48.122;11.546;2023-04-29T10:02:09;2.63;;;2.43;;
17985;SDS011;9118;48.122;11.546;2023-04-29T10:04:40;2.60;;;2.43;;
17985;SDS011;9118;48.122;11.546;2023-04-29T10:07:13;2.33;;;2.13;;
17985;SDS011;9118;48.122;11.546;2023-04-29T10:09:40;2.63;;;2.30;;
17985;SDS011;9118;48.122;11.546;2023-04-29T10:12:10;3.30;;;2.70;;
17985;SDS011;9118;48.122;11.546;2023-04-29T10:14:42;2.60;;;2.40;;
17985;SDS011;9118;48.122;11.546;2023-04-29T10:17:15;3.43;;;2.10;;
17985;SDS011;9118;48.122;11.546;2023-04-29T10:19:49;2.50;;;1.90;;
17985;SDS011;9118;48.122;11.546;2023-04-29T10:22:25;2.50;;;2.30;;
17985;SDS011;9118;48.122;11.546;2023-04-29T10:24:59;5.97;;;3.30;;
17985;SDS011;9118;48.122;11.546;2023-04-29T10:27:28;3.70;;;3.40;;
17985;SDS011;9118;48.122;11.546;2023-04-29T10:29:59;4.40;;;4.00;;
17985;SDS011;9118;48.122;11.546;2023-04-29T10:32:29;3.97;;;3.60;;
17985;SDS011;9118;48.122;11.546;2023-04-29T10:34:56;4.80;;;3.33;;
17985;SDS011;9118;48.122;11.546;2023-04-29T10:37:24;3.77;;;3.47;;
17985;SDS011;9118;48.122;11.546;2023-04-29T10:39:55;3.90;;;3.50;;
17985;SDS011;9118;48.122;11.546;2023-04-29T10:42:41;3.90;;;3.40;;
17985;SDS011;9118;48.122;11.546;2023-04-29T10:45:20;3.70;;;3.40;;
17985;SDS011;9118;48.122;11.546;2023-04-29T10:48:07;3.60;;;3.30;;
17985;SDS011;9118;48.122;11.546;2023-04-29T10:53:27;3.50;;;3.00;;
17985;SDS011;9118;48.122;11.546;2023-04-29T10:55:56;3.40;;;3.07;;
17985;SDS011;9118;48.122;11.546;2023-04-29T10:58:36;2.93;;;2.63;;
17985;SDS011;9118;48.122;11.546;2023-04-29T11:01:11;3.10;;;2.57;;
17985;SDS011;9118;48.122;11.546;2023-04-29T11:03:49;5.53;;;3.10;;
17985;SDS011;9118;48.122;11.546;2023-04-29T11:06:23;3.03;;;2.77;;
17985;SDS011;9118;48.122;11.546;2023-04-29T11:08:58;3.30;;;3.00;;
17985;SDS011;9118;48.122;11.546;2023-04-29T11:11:39;3.17;;;2.87;;
17985;SDS011;9118;48.122;11.546;2023-04-29T11:14:11;2.80;;;2.60;;
17985;SDS011;9118;48.122;11.546;2023-04-29T11:16:46;2.90;;;2.70;;
17985;SDS011;9118;48.122;11.546;2023-04-29T11:19:14;3.43;;;3.03;;
17985;SDS011;9118;48.122;11.546;2023-04-29T11:21:42;4.27;;;2.77;;
17985;SDS011;9118;48.122;11.546;2023-04-29T11:24:10;2.83;;;2.60;;
17985;SDS011;9118;48.122;11.546;2023-04-29T11:26:39;2.73;;;2.53;;
17985;SDS011;9118;48.122;11.546;2023-04-29T11:29:08;2.90;;;2.70;;
17985;SDS011;9118;48.122;11.546;2023-04-29T11:31:37;2.40;;;2.20;;
17985;SDS011;9118;48.122;11.546;2023-04-29T11:34:04;2.87;;;2.67;;
17985;SDS011;9118;48.122;11.546;2023-04-29T11:36:32;3.73;;;2.90;;
17985;SDS011;9118;48.122;11.546;2023-04-29T11:38:59;3.70;;;2.60;;
17985;SDS011;9118;48.122;11.546;2023-04-29T11:41:29;4.03;;;2.93;;
17985;SDS011;9118;48.122;11.546;2023-04-29T11:43:57;3.53;;;2.60;;
17985;SDS011;9118;48.122;11.546;2023-04-29T11:46:25;3.63;;;2.70;;
17985;SDS011;9118;48.122;11.546;2023-04-29T11:48:57;3.30;;;2.67;;
17985;SDS011;9118;48.122;11.546;2023-04-29T11:51:25;4.03;;;2.43;;
17985;SDS011;9118;48.122;11.546;2023-04-29T11:53:52;2.30;;;2.20;;
17985;SDS011;9118;48.122;11.546;2023-04-29T11:56:23;2.30;;;2.10;;
17985;SDS011;9118;48.122;11.546;2023-04-29T11:58:59;2.40;;;2.10;;
17985;SDS011;9118;48.122;11.546;2023-04-29T12:01:38;2.50;;;2.30;;
17985;SDS011;9118;48.122;11.546;2023-04-29T12:04:09;2.13;;;2.03;;
17985;SDS011;9118;48.122;11.546;2023-04-29T12:06:36;2.80;;;2.20;;
17985;SDS011;9118;48.122;11.546;2023-04-29T12:09:03;2.20;;;2.10;;
17985;SDS011;9118;48.122;11.546;2023-04-29T12:11:30;3.73;;;2.30;;
17985;SDS011;9118;48.122;11.546;2023-04-29T12:13:57;2.20;;;2.10;;
17985;SDS011;9118;48.122;11.546;2023-04-29T12:16:26;2.30;;;2.10;;
17985;SDS011;9118;48.122;11.546;2023-04-29T12:18:54;2.20;;;2.10;;
17985;SDS011;9118;48.122;11.546;2023-04-29T12:21:24;2.27;;;2.17;;
17985;SDS011;9118;48.122;11.546;2023-04-29T12:23:51;2.03;;;1.93;;
17985;SDS011;9118;48.122;11.546;2023-04-29T12:26:19;2.17;;;1.97;;
17985;SDS011;9118;48.122;11.546;2023-04-29T12:28:47;2.20;;;2.10;;
17985;SDS011;9118;48.122;11.546;2023-04-29T12:31:18;3.43;;;2.40;;
17985;SDS011;9118;48.122;11.546;2023-04-29T12:33:46;2.83;;;2.20;;
17985;SDS011;9118;48.122;11.546;2023-04-29T12:36:16;3.10;;;2.33;;
17985;SDS011;9118;48.122;11.546;2023-04-29T12:38:46;2.50;;;2.30;;
17985;SDS011;9118;48.122;11.546;2023-04-29T12:41:13;2.90;;;2.60;;
17985;SDS011;9118;48.122;11.546;2023-04-29T12:43:41;2.40;;;2.20;;
17985;SDS011;9118;48.122;11.546;2023-04-29T12:46:09;2.00;;;1.90;;
17985;SDS011;9118;48.122;11.546;2023-04-29T12:48:37;2.87;;;2.10;;
17985;SDS011;9118;48.122;11.546;2023-04-29T12:51:07;2.20;;;2.10;;
17985;SDS011;9118;48.122;11.546;2023-04-29T12:53:34;2.67;;;2.27;;
17985;SDS011;9118;48.122;11.546;2023-04-29T12:56:04;4.33;;;2.50;;
17985;SDS011;9118;48.122;11.546;2023-04-29T12:58:32;2.13;;;2.03;;
17985;SDS011;9118;48.122;11.546;2023-04-29T13:00:59;2.20;;;2.10;;
17985;SDS011;9118;48.122;11.546;2023-04-29T13:03:26;2.20;;;2.00;;
17985;SDS011;9118;48.122;11.546;2023-04-29T13:05:53;2.53;;;2.10;;
17985;SDS011;9118;48.122;11.546;2023-04-29T13:08:21;1.90;;;1.80;;
17985;SDS011;9118;48.122;11.546;2023-04-29T13:10:48;2.40;;;2.20;;
17985;SDS011;9118;48.122;11.546;2023-04-29T13:13:16;3.83;;;2.30;;
17985;SDS011;9118;48.122;11.546;2023-04-29T13:15:43;2.60;;;2.50;;
17985;SDS011;9118;48.122;11.546;2023-04-29T13:18:11;2.30;;;2.03;;
17985;SDS011;9118;48.122;11.546;2023-04-29T13:20:38;4.80;;;2.30;;
17985;SDS011;9118;48.122;11.546;2023-04-29T13:23:05;1.87;;;1.67;;
17985;SDS011;9118;48.122;11.546;2023-04-29T13:25:34;2.00;;;1.80;;
17985;SDS011;9118;48.122;11.546;2023-04-29T13:28:01;2.13;;;2.03;;
17985;SDS011;9118;48.122;11.546;2023-04-29T13:30:30;1.90;;;1.73;;
17985;SDS011;9118;48.122;11.546;2023-04-29T13:32:57;1.70;;;1.60;;
17985;SDS011;9118;48.122;11.546;2023-04-29T13:35:25;1.97;;;1.87;;
17985;SDS011;9118;48.122;11.546;2023-04-29T13:37:53;1.80;;;1.70;;
17985;SDS011;9118;48.122;11.546;2023-04-29T13:40:21;1.83;;;1.70;;
17985;SDS011;9118;48.122;11.546;2023-04-29T13:42:48;2.20;;;1.63;;
17985;SDS011;9118;48.122;11.546;2023-04-29T13:45:15;1.90;;;1.80;;
17985;SDS011;9118;48.122;11.546;2023-04-29T13:47:43;1.70;;;1.60;;
17985;SDS011;9118;48.122;11.546;2023-04-29T13:50:11;1.90;;;1.70;;
17985;SDS011;9118;48.122;11.546;2023-04-29T13:52:38;1.73;;;1.57;;
17985;SDS011;9118;48.122;11.546;2023-04-29T13:55:05;1.60;;;1.50;;
17985;SDS011;9118;48.122;11.546;2023-04-29T13:57:33;1.60;;;1.50;;
17985;SDS011;9118;48.122;11.546;2023-04-29T14:00:00;1.37;;;1.37;;
17985;SDS011;9118;48.122;11.546;2023-04-29T14:02:27;2.67;;;2.10;;
17985;SDS011;9118;48.122;11.546;2023-04-29T14:04:55;1.97;;;1.80;;
17985;SDS011;9118;48.122;11.546;2023-04-29T14:07:22;1.70;;;1.60;;
17985;SDS011;9118;48.122;11.546;2023-04-29T14:09:50;2.10;;;1.90;;
17985;SDS011;9118;48.122;11.546;2023-04-29T14:12:17;1.97;;;1.67;;
17985;SDS011;9118;48.122;11.546;2023-04-29T14:14:44;2.00;;;1.90;;
17985;SDS011;9118;48.122;11.546;2023-04-29T14:17:11;1.47;;;1.47;;
17985;SDS011;9118;48.122;11.546;2023-04-29T14:19:38;1.50;;;1.40;;
17985;SDS011;9118;48.122;11.546;2023-04-29T14:22:06;1.37;;;1.37;;
17985;SDS011;9118;48.122;11.546;2023-04-29T14:24:33;3.30;;;1.60;;
17985;SDS011;9118;48.122;11.546;2023-04-29T14:27:00;1.70;;;1.60;;
17985;SDS011;9118;48.122;11.546;2023-04-29T14:29:28;1.92;;;1.55;;
17985;SDS011;9118;48.122;11.546;2023-04-29T14:31:56;1.90;;;1.50;;
17985;SDS011;9118;48.122;11.546;2023-04-29T14:34:23;2.20;;;1.50;;
17985;SDS011;9118;48.122;11.546;2023-04-29T14:36:50;4.25;;;1.70;;
17985;SDS011;9118;48.122;11.546;2023-04-29T14:39:18;1.52;;;1.42;;
17985;SDS011;9118;48.122;11.546;2023-04-29T14:41:45;2.17;;;1.43;;
17985;SDS011;9118;48.122;11.546;2023-04-29T14:44:15;4.65;;;1.80;;
17985;SDS011;9118;48.122;11.546;2023-04-29T14:46:43;1.75;;;1.65;;
17985;SDS011;9118;48.122;11.546;2023-04-29T14:49:12;1.70;;;1.60;;
17985;SDS011;9118;48.122;11.546;2023-04-29T14:51:40;1.90;;;1.80;;
17985;SDS011;9118;48.122;11.546;2023-04-29T14:54:07;1.60;;;1.50;;
17985;SDS011;9118;48.122;11.546;2023-04-29T14:56:37;2.72;;;1.20;;
17985;SDS011;9118;48.122;11.546;2023-04-29T14:59:06;1.80;;;1.70;;